Weather at Suburban Airport [CLOSED]

Public forecast

Using degrees Fahrenheit for public forecast. Weather courtesy of forecast.io.

Closest aviation weather report (METAR) to Suburban Airport

Closest report is Tipton Airport, 3.2 nm (6.0 km) E. Retrieved 2020/09/21 03:35 UTC (0 seconds ago):

KFME 210335Z AUTO 00000KT 10SM CLR 06/06 A3056 RMK AO1

Closest aviation forecast (TAF) to Suburban Airport

Closest forecast is Baltimore/Washington International Thurgood Marshall Airport, 9.5 nm (17.6 km) NE. Retrieved 2020-09-21 00:28 UTC (3 hours ago):

TAF KBWI 202326Z 2100/2206 08007KT P6SM SKC FM210600 02004KT P6SM SKC FM211400 04007KT P6SM SKC FM220000 VRB03KT P6SM SKC